createdAt,value
2022-11-24T00:00:11.935Z,9.25
2022-11-24T00:00:23.850Z,9.29
2022-11-24T00:00:35.772Z,9.23
2022-11-24T00:00:47.654Z,9.20
2022-11-24T00:01:08.387Z,9.26
2022-11-24T00:01:25.690Z,9.28
2022-11-24T00:01:37.564Z,9.31
2022-11-24T00:01:49.507Z,9.36
2022-11-24T00:02:01.631Z,9.31
2022-11-24T00:02:13.909Z,9.19
2022-11-24T00:02:25.990Z,9.22
2022-11-24T00:02:38.120Z,9.15
2022-11-24T00:02:50.228Z,9.19
2022-11-24T00:03:04.627Z,9.23
2022-11-24T00:03:17.028Z,9.28
2022-11-24T00:03:29.544Z,9.28
2022-11-24T00:03:41.807Z,9.28
2022-11-24T00:03:55.311Z,9.27
2022-11-24T00:04:07.527Z,9.23
2022-11-24T00:04:19.409Z,9.22
2022-11-24T00:04:31.446Z,9.20
2022-11-24T00:04:43.477Z,9.26
2022-11-24T00:04:55.335Z,9.20
2022-11-24T00:05:07.775Z,9.20
2022-11-24T00:05:19.672Z,9.24
2022-11-24T00:05:31.656Z,9.23
2022-11-24T00:05:43.874Z,9.25
2022-11-24T00:05:55.746Z,9.30
2022-11-24T00:06:10.777Z,9.25
2022-11-24T00:06:23.852Z,9.20
2022-11-24T00:06:35.971Z,9.16
2022-11-24T00:06:47.846Z,9.18
2022-11-24T00:06:59.701Z,9.10
2022-11-24T00:07:11.646Z,9.15
2022-11-24T00:07:23.605Z,9.11
2022-11-24T00:07:35.588Z,9.10
2022-11-24T00:07:47.539Z,9.12
2022-11-24T00:07:59.495Z,9.12
2022-11-24T00:08:12.114Z,9.14
2022-11-24T00:08:24.034Z,9.12
2022-11-24T00:08:36.767Z,9.13
2022-11-24T00:08:48.677Z,9.10
2022-11-24T00:09:01.177Z,9.08
2022-11-24T00:09:13.141Z,9.08
2022-11-24T00:09:25.071Z,9.14
2022-11-24T00:09:36.984Z,9.14
2022-11-24T00:09:48.855Z,9.17
2022-11-24T00:10:00.725Z,9.19
2022-11-24T00:10:12.626Z,9.19
2022-11-24T00:10:24.507Z,9.22
2022-11-24T00:10:36.419Z,9.17
2022-11-24T00:10:48.292Z,9.15
2022-11-24T00:11:08.346Z,9.15
2022-11-24T00:11:23.139Z,9.14
2022-11-24T00:11:36.214Z,9.12
2022-11-24T00:11:48.085Z,9.16
2022-11-24T00:12:01.266Z,9.08
2022-11-24T00:12:13.171Z,9.09
2022-11-24T00:12:25.065Z,9.07
2022-11-24T00:12:36.940Z,9.03
2022-11-24T00:12:48.798Z,9.03
2022-11-24T00:13:00.666Z,9.07
2022-11-24T00:13:12.738Z,9.10
2022-11-24T00:13:24.604Z,9.14
2022-11-24T00:13:38.955Z,9.12
2022-11-24T00:13:51.374Z,9.11
2022-11-24T00:14:04.562Z,9.09
2022-11-24T00:14:16.474Z,9.05
2022-11-24T00:14:28.394Z,9.05
2022-11-24T00:14:40.261Z,9.08
2022-11-24T00:14:52.187Z,9.06
2022-11-24T00:15:04.317Z,9.10
2022-11-24T00:15:16.320Z,9.14
2022-11-24T00:15:28.234Z,9.15
2022-11-24T00:15:40.093Z,9.16
2022-11-24T00:15:51.963Z,9.15
2022-11-24T00:16:05.817Z,9.14
2022-11-24T00:16:22.878Z,9.16
2022-11-24T00:16:36.962Z,9.16
2022-11-24T00:16:48.920Z,9.16
2022-11-24T00:17:00.902Z,9.18
2022-11-24T00:17:12.806Z,9.17
2022-11-24T00:17:24.685Z,9.18
2022-11-24T00:17:36.560Z,9.22
2022-11-24T00:17:48.432Z,9.24
2022-11-24T00:18:00.325Z,9.25
2022-11-24T00:18:12.179Z,9.19
2022-11-24T00:18:24.044Z,9.18
2022-11-24T00:18:36.168Z,9.14
2022-11-24T00:18:50.139Z,9.14
2022-11-24T00:19:04.190Z,9.10
2022-11-24T00:19:19.734Z,9.04
2022-11-24T00:19:31.934Z,9.06
2022-11-24T00:19:43.942Z,8.99
2022-11-24T00:19:55.827Z,8.89
2022-11-24T00:20:08.416Z,8.90
2022-11-24T00:20:20.278Z,8.95
2022-11-24T00:20:32.161Z,8.94
2022-11-24T00:20:51.990Z,9.02
2022-11-24T00:21:04.006Z,9.02
2022-11-24T00:21:18.261Z,8.98
2022-11-24T00:21:31.715Z,9.01
2022-11-24T00:21:43.688Z,8.99
2022-11-24T00:21:55.559Z,8.95
2022-11-24T00:22:07.447Z,8.91
2022-11-24T00:22:19.309Z,8.94
2022-11-24T00:22:31.181Z,8.97
2022-11-24T00:22:43.091Z,8.98
2022-11-24T00:22:55.936Z,9.07
2022-11-24T00:23:07.933Z,9.09
2022-11-24T00:23:19.864Z,9.07
2022-11-24T00:23:31.891Z,9.09
2022-11-24T00:23:44.761Z,9.00
2022-11-24T00:23:57.576Z,8.92
2022-11-24T00:24:09.731Z,8.84
2022-11-24T00:24:21.599Z,8.81
2022-11-24T00:24:33.717Z,8.87
2022-11-24T00:24:45.834Z,8.87
2022-11-24T00:24:57.711Z,8.84
2022-11-24T00:25:09.625Z,8.85
2022-11-24T00:25:21.613Z,8.86
2022-11-24T00:25:33.519Z,8.89
2022-11-24T00:25:45.399Z,8.90
2022-11-24T00:26:05.536Z,8.90
2022-11-24T00:26:18.856Z,8.87
2022-11-24T00:26:36.169Z,8.88
2022-11-24T00:26:48.067Z,8.90
2022-11-24T00:26:59.993Z,8.96
2022-11-24T00:27:11.897Z,8.90
2022-11-24T00:27:23.767Z,8.97
2022-11-24T00:27:35.639Z,8.98
2022-11-24T00:27:47.571Z,8.97
2022-11-24T00:27:59.444Z,8.93
2022-11-24T00:28:11.332Z,8.95
2022-11-24T00:28:23.206Z,8.97
2022-11-24T00:28:36.796Z,9.00
2022-11-24T00:28:50.433Z,8.99
2022-11-24T00:29:05.543Z,8.94
2022-11-24T00:29:17.586Z,8.88
2022-11-24T00:29:29.492Z,8.87
2022-11-24T00:29:41.380Z,8.90
2022-11-24T00:29:53.310Z,8.93
2022-11-24T00:30:05.551Z,9.01
2022-11-24T00:30:17.440Z,9.07
2022-11-24T00:30:29.395Z,9.04
2022-11-24T00:30:41.357Z,9.05
2022-11-24T00:30:53.309Z,9.06
2022-11-24T00:31:17.171Z,9.04
2022-11-24T00:31:35.226Z,9.04
2022-11-24T00:31:47.218Z,9.00
2022-11-24T00:31:59.160Z,8.95
2022-11-24T00:32:11.033Z,8.89
2022-11-24T00:32:22.949Z,8.85
2022-11-24T00:32:34.811Z,8.90
2022-11-24T00:32:46.703Z,8.87
2022-11-24T00:32:58.583Z,8.83
2022-11-24T00:33:10.467Z,8.83
2022-11-24T00:33:22.364Z,8.88
2022-11-24T00:33:34.266Z,8.98
2022-11-24T00:33:48.115Z,9.02
2022-11-24T00:34:01.996Z,9.05
2022-11-24T00:34:14.533Z,9.04
2022-11-24T00:34:26.426Z,8.98
2022-11-24T00:34:38.678Z,8.98
2022-11-24T00:34:50.557Z,8.97
2022-11-24T00:35:02.457Z,8.91
2022-11-24T00:35:14.439Z,8.87
2022-11-24T00:35:26.320Z,8.81
2022-11-24T00:35:38.199Z,8.75
2022-11-24T00:36:00.418Z,8.81
2022-11-24T00:36:12.544Z,8.85
2022-11-24T00:36:27.094Z,8.90
2022-11-24T00:36:39.879Z,8.82
2022-11-24T00:36:51.759Z,8.82
2022-11-24T00:37:03.650Z,8.78
2022-11-24T00:37:15.542Z,8.79
2022-11-24T00:37:27.440Z,8.79
2022-11-24T00:37:39.327Z,8.77
2022-11-24T00:37:51.203Z,8.84
2022-11-24T00:38:03.090Z,8.79
2022-11-24T00:38:14.964Z,8.77
2022-11-24T00:38:27.173Z,8.82
2022-11-24T00:38:39.107Z,8.87
2022-11-24T00:38:59.159Z,8.82
2022-11-24T00:39:15.370Z,8.77
2022-11-24T00:39:27.271Z,8.79
2022-11-24T00:39:39.148Z,8.82
2022-11-24T00:39:51.035Z,8.83
2022-11-24T00:40:03.012Z,8.84
2022-11-24T00:40:14.896Z,8.82
2022-11-24T00:40:29.690Z,8.84
2022-11-24T00:40:45.540Z,8.85
2022-11-24T00:40:57.495Z,8.92
2022-11-24T00:41:11.913Z,8.93
2022-11-24T00:41:25.397Z,9.00
2022-11-24T00:41:37.778Z,8.96
2022-11-24T00:41:49.834Z,8.98
2022-11-24T00:42:01.987Z,8.97
2022-11-24T00:42:14.284Z,8.94
2022-11-24T00:42:26.202Z,8.90
2022-11-24T00:42:38.084Z,8.99
2022-11-24T00:42:49.953Z,9.08
2022-11-24T00:43:01.925Z,9.04
2022-11-24T00:43:13.926Z,9.02
2022-11-24T00:43:25.806Z,8.97
2022-11-24T00:43:37.971Z,8.99
2022-11-24T00:43:50.028Z,9.01
2022-11-24T00:44:02.030Z,8.93
2022-11-24T00:44:13.977Z,8.91
2022-11-24T00:44:25.873Z,8.91
2022-11-24T00:44:37.765Z,8.84
2022-11-24T00:44:49.641Z,8.83
2022-11-24T00:45:12.918Z,8.86
2022-11-24T00:45:25.569Z,8.98
2022-11-24T00:45:37.475Z,8.93
2022-11-24T00:45:49.510Z,8.97
2022-11-24T00:46:02.042Z,9.00
2022-11-24T00:46:14.081Z,8.93
2022-11-24T00:46:27.124Z,8.85
2022-11-24T00:46:39.277Z,8.84
2022-11-24T00:46:51.371Z,8.88
2022-11-24T00:47:03.441Z,8.85
2022-11-24T00:47:17.708Z,8.87
2022-11-24T00:47:32.715Z,8.89
2022-11-24T00:47:44.587Z,8.99
2022-11-24T00:47:56.466Z,9.01
2022-11-24T00:48:08.756Z,9.02
2022-11-24T00:48:20.741Z,8.94
2022-11-24T00:48:32.619Z,8.93
2022-11-24T00:48:44.566Z,8.93
2022-11-24T00:48:56.969Z,8.87
2022-11-24T00:49:09.107Z,8.88
2022-11-24T00:49:20.998Z,8.85
2022-11-24T00:49:32.921Z,8.91
2022-11-24T00:49:44.833Z,8.96
2022-11-24T00:49:56.712Z,8.92
2022-11-24T00:50:08.974Z,8.88
2022-11-24T00:50:21.240Z,8.88
2022-11-24T00:50:33.124Z,8.86
2022-11-24T00:50:45.055Z,8.78
2022-11-24T00:51:02.162Z,8.73
2022-11-24T00:51:16.409Z,8.79
2022-11-24T00:51:32.590Z,8.83
2022-11-24T00:51:44.471Z,8.93
2022-11-24T00:51:56.350Z,8.93
2022-11-24T00:52:08.254Z,8.88
2022-11-24T00:52:20.124Z,8.92
2022-11-24T00:52:32.050Z,8.96
2022-11-24T00:52:43.931Z,8.94
2022-11-24T00:52:55.822Z,8.87
2022-11-24T00:53:07.771Z,8.91
2022-11-24T00:53:19.643Z,8.92
2022-11-24T00:53:31.578Z,8.89
2022-11-24T00:53:43.777Z,8.94
2022-11-24T00:53:57.278Z,9.00
2022-11-24T00:54:09.292Z,8.94
2022-11-24T00:54:21.299Z,9.02
2022-11-24T00:54:33.344Z,8.98
2022-11-24T00:54:45.380Z,9.04
2022-11-24T00:54:57.277Z,9.05
2022-11-24T00:55:09.338Z,9.05
2022-11-24T00:55:21.517Z,9.04
2022-11-24T00:55:33.398Z,9.09
2022-11-24T00:55:49.477Z,9.04
2022-11-24T00:56:03.864Z,9.09
2022-11-24T00:56:16.083Z,9.13
2022-11-24T00:56:29.611Z,9.15
2022-11-24T00:56:41.499Z,9.19
2022-11-24T00:56:53.411Z,9.17
2022-11-24T00:57:05.281Z,9.16
2022-11-24T00:57:17.156Z,9.16
2022-11-24T00:57:29.037Z,9.16
2022-11-24T00:57:40.911Z,9.12
2022-11-24T00:57:52.802Z,9.09
2022-11-24T00:58:04.683Z,9.10
2022-11-24T00:58:16.561Z,9.13
2022-11-24T00:58:28.426Z,9.16
2022-11-24T00:58:40.877Z,9.17
2022-11-24T00:58:53.254Z,9.23
2022-11-24T00:59:05.146Z,9.26
2022-11-24T00:59:17.095Z,9.31
2022-11-24T00:59:29.003Z,9.27
2022-11-24T00:59:40.872Z,9.31
2022-11-24T00:59:52.758Z,9.27
2022-11-24T01:00:05.259Z,9.29
2022-11-24T01:00:18.469Z,9.27
2022-11-24T01:00:30.445Z,9.30
2022-11-24T01:00:42.375Z,9.26
2022-11-24T01:00:54.328Z,9.31
2022-11-24T01:01:20.633Z,9.28
2022-11-24T01:01:32.720Z,9.21
2022-11-24T01:01:44.788Z,9.18
2022-11-24T01:01:56.804Z,9.18
2022-11-24T01:02:08.846Z,9.25
2022-11-24T01:02:20.806Z,9.28
2022-11-24T01:02:32.784Z,9.29
2022-11-24T01:02:44.923Z,9.23
2022-11-24T01:02:56.880Z,9.21
2022-11-24T01:03:08.828Z,9.30
2022-11-24T01:03:21.361Z,9.32
2022-11-24T01:03:34.136Z,9.31
2022-11-24T01:03:47.320Z,9.27
2022-11-24T01:04:03.422Z,9.30
2022-11-24T01:04:15.401Z,9.19
2022-11-24T01:04:27.309Z,9.24
2022-11-24T01:04:39.177Z,9.26
2022-11-24T01:04:51.044Z,9.25
2022-11-24T01:05:03.243Z,9.24
2022-11-24T01:05:15.313Z,9.20
2022-11-24T01:05:27.236Z,9.19
2022-11-24T01:05:39.793Z,9.22
2022-11-24T01:05:51.679Z,9.26
2022-11-24T01:06:06.361Z,9.30
2022-11-24T01:06:23.945Z,9.26
2022-11-24T01:06:36.474Z,9.23
2022-11-24T01:06:48.375Z,9.29
2022-11-24T01:07:00.274Z,9.28
2022-11-24T01:07:12.252Z,9.26
2022-11-24T01:07:24.260Z,9.33
2022-11-24T01:07:36.303Z,9.32
2022-11-24T01:07:48.253Z,9.29
2022-11-24T01:08:00.164Z,9.29
2022-11-24T01:08:12.310Z,9.30
2022-11-24T01:08:24.201Z,9.32
2022-11-24T01:08:40.274Z,9.31
2022-11-24T01:08:52.587Z,9.34
2022-11-24T01:09:04.936Z,9.35
2022-11-24T01:09:16.847Z,9.34
2022-11-24T01:09:28.770Z,9.30
2022-11-24T01:09:43.079Z,9.28
2022-11-24T01:09:54.945Z,9.27
2022-11-24T01:10:07.325Z,9.32
2022-11-24T01:10:19.221Z,9.39
2022-11-24T01:10:31.188Z,9.37
2022-11-24T01:10:43.088Z,9.37
2022-11-24T01:10:54.969Z,9.38
2022-11-24T01:11:28.434Z,9.34
2022-11-24T01:11:58.750Z,9.28
2022-11-24T01:12:10.655Z,9.32
2022-11-24T01:12:22.531Z,9.33
2022-11-24T01:12:35.037Z,9.39
2022-11-24T01:12:47.747Z,9.42
2022-11-24T01:13:00.124Z,9.42
2022-11-24T01:13:13.214Z,9.38
2022-11-24T01:13:25.101Z,9.39
2022-11-24T01:13:37.644Z,9.42
2022-11-24T01:13:57.342Z,9.42
2022-11-24T01:14:09.215Z,9.40
2022-11-24T01:14:24.837Z,9.47
2022-11-24T01:14:36.799Z,9.41
2022-11-24T01:14:48.959Z,9.48
2022-11-24T01:15:00.945Z,9.49
2022-11-24T01:15:12.885Z,9.52
2022-11-24T01:15:25.227Z,9.53
2022-11-24T01:15:37.191Z,9.54
2022-11-24T01:15:49.190Z,9.50
2022-11-24T01:16:01.272Z,9.48
2022-11-24T01:16:24.123Z,9.47
2022-11-24T01:16:36.043Z,9.46
2022-11-24T01:16:48.596Z,9.45
2022-11-24T01:17:00.601Z,9.49
2022-11-24T01:17:12.556Z,9.50
2022-11-24T01:17:24.506Z,9.47
2022-11-24T01:17:36.371Z,9.49
2022-11-24T01:17:48.425Z,9.45
2022-11-24T01:18:00.323Z,9.53
2022-11-24T01:18:13.117Z,9.52
2022-11-24T01:18:25.015Z,9.55
2022-11-24T01:18:36.914Z,9.53
2022-11-24T01:18:49.566Z,9.55
2022-11-24T01:19:01.590Z,9.63
2022-11-24T01:19:13.621Z,9.59
2022-11-24T01:19:25.585Z,9.55
2022-11-24T01:19:37.507Z,9.51
2022-11-24T01:19:49.431Z,9.44
2022-11-24T01:20:01.380Z,9.50
2022-11-24T01:20:13.793Z,9.44
2022-11-24T01:20:25.670Z,9.49
2022-11-24T01:20:37.774Z,9.51
2022-11-24T01:20:49.652Z,9.50
2022-11-24T01:21:09.619Z,9.54
2022-11-24T01:21:22.882Z,9.61
2022-11-24T01:21:34.763Z,9.63
2022-11-24T01:21:46.894Z,9.64
2022-11-24T01:21:58.799Z,9.59
2022-11-24T01:22:10.677Z,9.53
2022-11-24T01:22:22.615Z,9.48
2022-11-24T01:22:34.905Z,9.54
2022-11-24T01:22:48.599Z,9.56
2022-11-24T01:23:00.603Z,9.50
2022-11-24T01:23:12.507Z,9.57
2022-11-24T01:23:24.394Z,9.58
2022-11-24T01:23:36.295Z,9.57
2022-11-24T01:23:49.174Z,9.65
2022-11-24T01:24:01.087Z,9.69
2022-11-24T01:24:13.347Z,9.64
2022-11-24T01:24:25.269Z,9.65
2022-11-24T01:24:37.174Z,9.66
2022-11-24T01:24:49.114Z,9.67
2022-11-24T01:25:01.014Z,9.69
2022-11-24T01:25:12.894Z,9.65
2022-11-24T01:25:24.862Z,9.64
2022-11-24T01:25:39.597Z,9.65
2022-11-24T01:25:51.513Z,9.59
2022-11-24T01:26:05.850Z,9.59
2022-11-24T01:26:20.657Z,9.65
2022-11-24T01:26:32.568Z,9.65
2022-11-24T01:26:44.446Z,9.62
2022-11-24T01:26:56.331Z,9.55
2022-11-24T01:27:08.695Z,9.57
2022-11-24T01:27:20.573Z,9.59
2022-11-24T01:27:32.730Z,9.65
2022-11-24T01:27:44.801Z,9.60
2022-11-24T01:27:56.695Z,9.62
2022-11-24T01:28:08.959Z,9.67
2022-11-24T01:28:20.839Z,9.70
2022-11-24T01:28:33.096Z,9.72
2022-11-24T01:28:47.467Z,9.70
2022-11-24T01:28:59.645Z,9.66
2022-11-24T01:29:12.221Z,9.67
2022-11-24T01:29:25.814Z,9.72
2022-11-24T01:29:37.698Z,9.67
2022-11-24T01:29:49.629Z,9.70
2022-11-24T01:30:01.921Z,9.77
2022-11-24T01:30:14.019Z,9.77
2022-11-24T01:30:25.910Z,9.73
2022-11-24T01:30:37.893Z,9.71
2022-11-24T01:31:04.929Z,9.79
2022-11-24T01:31:17.247Z,9.74
2022-11-24T01:31:29.227Z,9.71
2022-11-24T01:31:41.256Z,9.71
2022-11-24T01:31:53.182Z,9.72
2022-11-24T01:32:05.062Z,9.71
2022-11-24T01:32:16.935Z,9.71
2022-11-24T01:32:28.817Z,9.69
2022-11-24T01:32:40.707Z,9.75
2022-11-24T01:32:52.587Z,9.76
2022-11-24T01:33:05.004Z,9.79
2022-11-24T01:33:16.883Z,9.82
2022-11-24T01:33:28.859Z,9.82
2022-11-24T01:33:40.737Z,9.84
2022-11-24T01:33:52.940Z,9.85
2022-11-24T01:34:04.819Z,9.85
2022-11-24T01:34:16.802Z,9.81
2022-11-24T01:34:28.663Z,9.78
2022-11-24T01:34:40.525Z,9.75
2022-11-24T01:34:52.406Z,9.78
2022-11-24T01:35:05.586Z,9.80
2022-11-24T01:35:17.606Z,9.80
2022-11-24T01:35:29.484Z,9.80
2022-11-24T01:35:41.367Z,9.85
2022-11-24T01:35:53.739Z,9.82
2022-11-24T01:36:06.843Z,9.78
2022-11-24T01:36:19.838Z,9.81
2022-11-24T01:36:31.747Z,9.82
2022-11-24T01:36:43.626Z,9.81
2022-11-24T01:36:55.517Z,9.81
2022-11-24T01:37:07.418Z,9.83
2022-11-24T01:37:19.383Z,9.84
2022-11-24T01:37:31.826Z,9.87
2022-11-24T01:37:43.775Z,9.85
2022-11-24T01:37:55.911Z,9.85
2022-11-24T01:38:07.778Z,9.81
2022-11-24T01:38:19.999Z,9.82
2022-11-24T01:38:32.387Z,9.80
2022-11-24T01:38:44.253Z,9.70
2022-11-24T01:38:56.123Z,9.69
2022-11-24T01:39:08.029Z,9.72
2022-11-24T01:39:19.958Z,9.69
2022-11-24T01:39:31.835Z,9.71
2022-11-24T01:39:43.717Z,9.66
2022-11-24T01:39:55.653Z,9.72
2022-11-24T01:40:08.382Z,9.75
2022-11-24T01:40:20.529Z,9.76
2022-11-24T01:40:32.421Z,9.79
2022-11-24T01:40:44.368Z,9.82
2022-11-24T01:41:05.344Z,9.80
2022-11-24T01:41:23.098Z,9.78
2022-11-24T01:41:35.633Z,9.76
2022-11-24T01:41:47.602Z,9.75
2022-11-24T01:42:02.105Z,9.82
2022-11-24T01:42:13.979Z,9.82
2022-11-24T01:42:25.852Z,9.82
2022-11-24T01:42:47.839Z,9.86
2022-11-24T01:42:59.738Z,9.83
2022-11-24T01:43:20.121Z,9.68
2022-11-24T01:43:32.718Z,9.70
2022-11-24T01:43:45.583Z,9.64
2022-11-24T01:43:57.459Z,9.67
2022-11-24T01:44:25.898Z,9.63
2022-11-24T01:44:37.786Z,9.59
2022-11-24T01:45:28.073Z,9.70
2022-11-24T01:45:43.172Z,9.71
2022-11-24T01:45:56.269Z,9.70
2022-11-24T01:46:19.950Z,9.71
2022-11-24T01:46:41.786Z,9.65
2022-11-24T01:47:00.169Z,9.62
2022-11-24T01:47:11.978Z,9.63
2022-11-24T01:47:36.285Z,9.66
2022-11-24T01:47:48.429Z,9.72
2022-11-24T01:48:05.268Z,9.70
2022-11-24T01:48:27.286Z,9.65
2022-11-24T01:48:49.091Z,9.70
2022-11-24T01:49:26.003Z,9.59
2022-11-24T01:49:44.092Z,9.66
2022-11-24T01:49:59.910Z,9.68
2022-11-24T01:50:16.271Z,9.66
2022-11-24T01:50:28.233Z,9.67
2022-11-24T01:50:41.977Z,9.66
2022-11-24T01:51:06.971Z,9.60
2022-11-24T01:51:25.338Z,9.66
2022-11-24T01:51:42.420Z,9.61
2022-11-24T01:52:15.273Z,9.70
2022-11-24T01:52:45.720Z,9.68
2022-11-24T01:52:58.555Z,9.72
2022-11-24T01:53:12.711Z,9.76
2022-11-24T01:53:25.454Z,9.76
2022-11-24T01:53:41.810Z,9.69
2022-11-24T01:53:59.249Z,9.68
2022-11-24T01:54:25.111Z,9.66
2022-11-24T01:54:41.495Z,9.74
2022-11-24T01:55:00.525Z,9.69
2022-11-24T01:55:20.458Z,9.63
2022-11-24T01:55:37.788Z,9.43
2022-11-24T01:55:51.782Z,9.50
2022-11-24T01:56:05.259Z,9.52
2022-11-24T01:56:18.063Z,9.56
2022-11-24T01:56:30.996Z,9.54
2022-11-24T01:56:47.175Z,9.51
2022-11-24T01:57:06.474Z,9.53
2022-11-24T01:57:46.145Z,9.69
2022-11-24T01:58:07.871Z,9.69
2022-11-24T01:58:24.196Z,9.70
2022-11-24T01:58:37.876Z,9.73
2022-11-24T01:58:52.170Z,9.72
2022-11-24T01:59:07.336Z,9.76
2022-11-24T01:59:21.008Z,9.81
2022-11-24T01:59:33.113Z,9.75
2022-11-24T01:59:48.149Z,9.79
2022-11-24T02:00:04.555Z,9.74
2022-11-24T02:00:17.000Z,9.79
2022-11-24T02:00:29.028Z,9.74
2022-11-24T02:00:44.040Z,9.80
2022-11-24T02:00:55.964Z,9.83
2022-11-24T02:01:08.598Z,9.83
2022-11-24T02:01:20.627Z,9.85
2022-11-24T02:01:33.020Z,9.81
2022-11-24T02:01:46.966Z,9.73
2022-11-24T02:01:59.130Z,9.72
2022-11-24T02:02:11.398Z,9.68
2022-11-24T02:02:25.746Z,9.68
2022-11-24T02:02:38.195Z,9.60
2022-11-24T02:02:50.333Z,9.58
2022-11-24T02:03:02.665Z,9.67
2022-11-24T02:03:20.192Z,9.65
2022-11-24T02:03:37.679Z,9.60
2022-11-24T02:03:50.508Z,9.64
2022-11-24T02:04:04.925Z,9.65
2022-11-24T02:04:23.746Z,9.65
2022-11-24T02:04:36.921Z,9.70
2022-11-24T02:04:50.047Z,9.77
2022-11-24T02:05:10.833Z,9.78
2022-11-24T02:05:39.123Z,9.81
2022-11-24T02:06:20.941Z,9.80
2022-11-24T02:06:35.209Z,9.74
2022-11-24T02:06:48.138Z,9.74
2022-11-24T02:07:03.318Z,9.82
2022-11-24T02:07:15.648Z,9.79
2022-11-24T02:07:27.750Z,9.81
2022-11-24T02:07:39.790Z,9.77
2022-11-24T02:07:55.581Z,9.73
2022-11-24T02:08:25.841Z,9.73
2022-11-24T02:09:02.528Z,9.76
2022-11-24T02:09:30.755Z,9.75
2022-11-24T02:10:11.877Z,9.72
2022-11-24T02:10:23.856Z,9.71
2022-11-24T02:10:36.867Z,9.73
2022-11-24T02:10:48.751Z,9.64
2022-11-24T02:11:04.205Z,9.63
2022-11-24T02:11:16.126Z,9.68
2022-11-24T02:11:35.032Z,9.75
2022-11-24T02:11:47.285Z,9.68
2022-11-24T02:12:02.353Z,9.72
2022-11-24T02:12:14.321Z,9.73
2022-11-24T02:12:27.180Z,9.74
2022-11-24T02:12:46.538Z,9.73
2022-11-24T02:13:00.124Z,9.68
2022-11-24T02:13:12.920Z,9.66
2022-11-24T02:13:25.042Z,9.71
2022-11-24T02:13:39.743Z,9.69
2022-11-24T02:13:53.773Z,9.74
2022-11-24T02:14:10.060Z,9.79
2022-11-24T02:14:24.531Z,9.83
2022-11-24T02:14:38.063Z,9.80
2022-11-24T02:14:51.576Z,9.90
2022-11-24T02:15:03.697Z,9.87
2022-11-24T02:15:18.009Z,9.82
2022-11-24T02:15:30.044Z,9.77
2022-11-24T02:15:42.777Z,9.77
2022-11-24T02:15:55.236Z,9.77
2022-11-24T02:16:10.284Z,9.80
2022-11-24T02:16:22.314Z,9.84
2022-11-24T02:16:36.010Z,9.88
2022-11-24T02:16:51.825Z,9.84
2022-11-24T02:17:03.908Z,9.86
2022-11-24T02:17:15.791Z,9.83
2022-11-24T02:17:27.716Z,9.86
2022-11-24T02:17:39.579Z,9.83
2022-11-24T02:17:51.509Z,9.81
2022-11-24T02:18:03.592Z,9.85
2022-11-24T02:18:15.487Z,9.74
2022-11-24T02:18:27.428Z,9.70
2022-11-24T02:18:41.565Z,9.75
2022-11-24T02:18:53.802Z,9.71
2022-11-24T02:19:16.125Z,9.74
2022-11-24T02:19:44.783Z,9.74
2022-11-24T02:19:59.819Z,9.71
2022-11-24T02:20:13.215Z,9.72
2022-11-24T02:20:26.197Z,9.72
2022-11-24T02:20:38.216Z,9.73
2022-11-24T02:20:50.126Z,9.70
2022-11-24T02:21:02.032Z,9.71
2022-11-24T02:21:16.246Z,9.70
2022-11-24T02:21:28.206Z,9.63
2022-11-24T02:21:40.115Z,9.64
2022-11-24T02:21:52.026Z,9.70
2022-11-24T02:22:04.754Z,9.71
2022-11-24T02:22:44.892Z,9.71
2022-11-24T02:23:05.802Z,9.72
2022-11-24T02:23:33.014Z,9.73
2022-11-24T02:23:48.767Z,9.73
2022-11-24T02:24:19.093Z,9.83
2022-11-24T02:24:31.080Z,9.85
2022-11-24T02:24:55.007Z,9.75
2022-11-24T02:25:11.736Z,9.77
2022-11-24T02:25:34.875Z,9.82
2022-11-24T02:26:13.891Z,9.73
2022-11-24T02:26:30.985Z,9.72
2022-11-24T02:26:46.094Z,9.71
2022-11-24T02:26:58.015Z,9.72
2022-11-24T02:27:10.966Z,9.81
2022-11-24T02:27:23.348Z,9.84
2022-11-24T02:27:35.726Z,9.82
2022-11-24T02:27:52.348Z,9.82
2022-11-24T02:28:10.250Z,9.85
2022-11-24T02:28:23.788Z,9.81
2022-11-24T02:28:36.320Z,9.68
2022-11-24T02:28:48.762Z,9.73
2022-11-24T02:29:00.827Z,9.73
2022-11-24T02:29:14.224Z,9.67
2022-11-24T02:29:26.168Z,9.67
2022-11-24T02:29:38.468Z,9.67
2022-11-24T02:29:50.521Z,9.73
2022-11-24T02:30:02.500Z,9.77
2022-11-24T02:30:14.566Z,9.85
2022-11-24T02:30:26.569Z,9.89
2022-11-24T02:30:39.230Z,9.93
2022-11-24T02:30:51.453Z,9.85
2022-11-24T02:31:05.592Z,9.83
2022-11-24T02:31:18.204Z,9.77
2022-11-24T02:31:30.374Z,9.77
2022-11-24T02:31:48.050Z,9.77
2022-11-24T02:32:04.643Z,9.72
2022-11-24T02:32:16.707Z,9.74
2022-11-24T02:32:31.853Z,9.70
2022-11-24T02:32:43.776Z,9.76
2022-11-24T02:32:55.699Z,9.70
2022-11-24T02:33:07.577Z,9.68
2022-11-24T02:33:21.737Z,9.73
2022-11-24T02:33:34.227Z,9.73
2022-11-24T02:33:59.102Z,9.74
2022-11-24T02:34:11.006Z,9.70
2022-11-24T02:34:22.905Z,9.67
2022-11-24T02:34:35.201Z,9.68
2022-11-24T02:34:47.211Z,9.81
2022-11-24T02:35:04.484Z,9.84
2022-11-24T02:35:17.566Z,9.89
2022-11-24T02:35:29.470Z,9.88
2022-11-24T02:35:41.391Z,9.87
2022-11-24T02:35:53.381Z,9.89
2022-11-24T02:36:05.601Z,9.88
2022-11-24T02:36:17.572Z,9.74
2022-11-24T02:36:29.760Z,9.69
2022-11-24T02:36:41.686Z,9.80
2022-11-24T02:36:53.647Z,9.82
2022-11-24T02:37:05.518Z,9.79
2022-11-24T02:37:17.460Z,9.84
2022-11-24T02:37:29.426Z,9.88
2022-11-24T02:37:41.296Z,9.87
2022-11-24T02:37:53.182Z,9.92
2022-11-24T02:38:05.081Z,9.89
2022-11-24T02:38:17.055Z,9.95
2022-11-24T02:38:34.208Z,9.93
2022-11-24T02:38:46.107Z,9.94
2022-11-24T02:38:58.224Z,9.93
2022-11-24T02:39:14.468Z,9.89
2022-11-24T02:39:26.507Z,9.88
2022-11-24T02:39:38.414Z,9.85
2022-11-24T02:39:50.284Z,9.84
2022-11-24T02:40:02.186Z,9.81
2022-11-24T02:40:16.503Z,9.79
2022-11-24T02:40:30.873Z,9.87
2022-11-24T02:40:46.293Z,9.87
2022-11-24T02:41:00.474Z,9.80
2022-11-24T02:41:16.777Z,9.73
2022-11-24T02:41:29.011Z,9.77
2022-11-24T02:41:51.229Z,9.78
2022-11-24T02:42:07.978Z,9.83
2022-11-24T02:42:19.930Z,9.90
2022-11-24T02:42:38.280Z,9.93
2022-11-24T02:42:54.783Z,9.96
2022-11-24T02:43:13.012Z,10.04
2022-11-24T02:43:25.611Z,10.03
2022-11-24T02:43:42.601Z,9.91
2022-11-24T02:43:58.360Z,9.93
2022-11-24T02:44:13.994Z,9.93
2022-11-24T02:44:32.740Z,9.96
2022-11-24T02:44:48.985Z,10.02
2022-11-24T02:45:01.603Z,10.00
2022-11-24T02:45:16.368Z,9.98
2022-11-24T02:45:29.426Z,9.93
2022-11-24T02:45:41.478Z,9.94
2022-11-24T02:45:53.394Z,9.89
2022-11-24T02:46:05.494Z,9.88
2022-11-24T02:46:17.684Z,9.94
2022-11-24T02:46:29.646Z,10.01
2022-11-24T02:46:41.636Z,9.96
2022-11-24T02:47:08.156Z,9.85
2022-11-24T02:47:20.059Z,9.75
2022-11-24T02:47:31.924Z,9.73
2022-11-24T02:47:44.031Z,9.71
2022-11-24T02:47:55.952Z,9.70
2022-11-24T02:48:07.867Z,9.68
2022-11-24T02:48:20.639Z,9.73
2022-11-24T02:48:32.682Z,9.78
2022-11-24T02:48:44.634Z,9.74
2022-11-24T02:48:56.527Z,9.65
2022-11-24T02:49:08.450Z,9.70
2022-11-24T02:49:20.317Z,9.67
2022-11-24T02:49:32.650Z,9.67
2022-11-24T02:49:44.522Z,9.66
2022-11-24T02:49:56.458Z,9.59
2022-11-24T02:50:08.675Z,9.54
2022-11-24T02:50:20.570Z,9.55
2022-11-24T02:50:32.579Z,9.52
2022-11-24T02:50:44.519Z,9.58
2022-11-24T02:50:56.459Z,9.63
2022-11-24T02:51:08.382Z,9.65
2022-11-24T02:51:20.285Z,9.67
2022-11-24T02:51:34.291Z,9.74
2022-11-24T02:51:46.174Z,9.69
2022-11-24T02:51:58.174Z,9.77
2022-11-24T02:52:10.065Z,9.74
2022-11-24T02:52:21.985Z,9.75
2022-11-24T02:52:33.885Z,9.75
2022-11-24T02:52:45.871Z,9.77
2022-11-24T02:52:57.744Z,9.75
2022-11-24T02:53:09.988Z,9.72
2022-11-24T02:53:21.979Z,9.74
2022-11-24T02:53:34.157Z,9.75
2022-11-24T02:53:46.179Z,9.78
2022-11-24T02:53:58.199Z,9.80
2022-11-24T02:54:10.179Z,9.85
2022-11-24T02:54:22.111Z,9.76
2022-11-24T02:54:34.823Z,9.75
2022-11-24T02:54:46.919Z,9.83
2022-11-24T02:54:58.819Z,9.83
2022-11-24T02:55:10.855Z,9.89
2022-11-24T02:55:23.560Z,9.86
2022-11-24T02:55:35.467Z,9.84
2022-11-24T02:55:47.603Z,9.86
2022-11-24T02:55:59.469Z,9.83
2022-11-24T02:56:11.405Z,9.82
2022-11-24T02:56:23.292Z,9.85
2022-11-24T02:56:35.187Z,9.82
2022-11-24T02:56:47.059Z,9.79
2022-11-24T02:56:59.188Z,9.74
2022-11-24T02:57:11.626Z,9.81
2022-11-24T02:57:23.742Z,9.80
2022-11-24T02:57:35.602Z,9.78
2022-11-24T02:57:47.580Z,9.81
2022-11-24T02:57:59.451Z,9.86
2022-11-24T02:58:11.557Z,9.88
2022-11-24T02:58:25.480Z,9.84
2022-11-24T02:58:37.357Z,9.84
2022-11-24T02:58:49.222Z,9.81
2022-11-24T02:59:01.085Z,9.75
2022-11-24T02:59:12.955Z,9.76
2022-11-24T02:59:25.205Z,9.77
2022-11-24T02:59:37.538Z,9.80
2022-11-24T02:59:49.488Z,9.77
2022-11-24T03:00:01.460Z,9.87
2022-11-24T03:00:14.018Z,9.82
2022-11-24T03:00:25.930Z,9.86
2022-11-24T03:00:38.066Z,9.84
2022-11-24T03:00:50.136Z,9.80
2022-11-24T03:01:02.322Z,9.88
2022-11-24T03:01:14.239Z,9.84
2022-11-24T03:01:26.380Z,9.82